Time;durP1;ratioP1;P1;durP2;ratioP2;P2;SDS_P1;SDS_P2;PMS_P1;PMS_P2;Temp;Humidity;BMP_temperature;BMP_pressure;BME280_temperature;BME280_humidity;BME280_pressure;Samples;Min_cycle;Max_cycle;Signal;HPM_P1;HPM_P2
2022/09/04 00:05:24;;;;;;;2.20;2.00;;;14.50;1.00;;;;;;5040752;28;20450;-83
2022/09/04 00:07:56;;;;;;;2.53;2.30;;;14.50;1.00;;;;;;5033338;28;20454;-83
2022/09/04 00:10:34;;;;;;;6.00;2.40;;;14.50;1.00;;;;;;5052885;28;20967;-83
2022/09/04 00:13:33;;;;;;;1.97;1.77;;;14.50;1.00;;;;;;5035554;28;20497;-76
2022/09/04 00:16:34;;;;;;;2.93;2.07;;;14.50;1.00;;;;;;5032677;28;20463;-76
2022/09/04 00:19:08;;;;;;;2.47;1.90;;;14.40;1.00;;;;;;5013934;28;20375;-77
2022/09/04 00:22:17;;;;;;;8.00;2.43;;;14.40;1.00;;;;;;5035195;28;20440;-76
2022/09/04 00:25:20;;;;;;;2.80;1.50;;;14.40;1.00;;;;;;4955047;29;20793;-76
2022/09/04 00:28:15;;;;;;;7.37;2.13;;;14.40;1.00;;;;;;4953212;29;20969;-77
2022/09/04 00:30:59;;;;;;;6.07;1.90;;;14.40;1.00;;;;;;4954118;29;20389;-76
2022/09/04 00:33:58;;;;;;;5.73;2.27;;;14.40;1.00;;;;;;4951663;29;20430;-76
2022/09/04 00:36:37;;;;;;;4.73;2.07;;;14.40;1.00;;;;;;4926014;29;20827;-76
2022/09/04 00:39:56;;;;;;;7.57;1.80;;;14.40;1.00;;;;;;4936167;29;20456;-76
2022/09/04 00:46:19;;;;;;;1.83;1.70;;;14.50;1.00;;;;;;4955451;28;20776;-83
2022/09/04 00:49:03;;;;;;;2.63;1.97;;;14.50;1.00;;;;;;4936440;29;20517;-83
2022/09/04 00:55:37;;;;;;;2.27;1.70;;;14.70;1.00;;;;;;4935888;29;20821;-83
2022/09/04 01:01:28;;;;;;;1.67;1.50;;;15.00;1.00;;;;;;5009236;28;20438;-83
2022/09/04 01:04:26;;;;;;;3.53;1.90;;;15.10;1.00;;;;;;4994944;28;20406;-83
2022/09/04 01:07:25;;;;;;;1.37;1.27;;;15.10;1.00;;;;;;4977152;28;20469;-83
2022/09/04 01:10:14;;;;;;;3.60;1.70;;;15.20;1.00;;;;;;4977253;28;20407;-83
2022/09/04 01:13:26;;;;;;;3.37;1.67;;;15.20;1.00;;;;;;4999184;28;20391;-83
2022/09/04 01:16:04;;;;;;;2.73;1.47;;;15.30;1.00;;;;;;4986495;28;20472;-83
2022/09/04 01:19:03;;;;;;;2.57;1.50;;;15.30;1.00;;;;;;4993304;28;20523;-83
2022/09/04 01:22:06;;;;;;;1.93;1.70;;;15.30;1.00;;;;;;4993547;28;20745;-83
2022/09/04 01:25:17;;;;;;;2.20;1.50;;;15.30;1.00;;;;;;5017870;28;20545;-83
2022/09/04 01:28:09;;;;;;;1.30;1.20;;;15.30;1.00;;;;;;4954775;29;20427;-83
2022/09/04 01:31:02;;;;;;;1.43;1.33;;;15.30;1.00;;;;;;4954464;29;20915;-83
2022/09/04 01:34:04;;;;;;;2.40;1.43;;;15.40;1.00;;;;;;4952914;29;20430;-83
2022/09/04 01:36:56;;;;;;;1.83;1.40;;;15.40;1.00;;;;;;4954847;28;20474;-83
2022/09/04 01:39:30;;;;;;;2.13;1.93;;;15.40;1.00;;;;;;4954077;29;20812;-83
2022/09/04 01:42:03;;;;;;;1.60;1.50;;;15.40;1.00;;;;;;4968645;28;20410;-77
2022/09/04 01:44:39;;;;;;;2.80;1.60;;;15.40;1.00;;;;;;4954793;28;20435;-76
2022/09/04 01:47:31;;;;;;;1.80;1.70;;;15.30;1.00;;;;;;4967113;28;20429;-77
2022/09/04 01:50:04;;;;;;;1.53;1.37;;;15.20;1.00;;;;;;4959106;28;20931;-76
2022/09/04 01:53:05;;;;;;;2.40;1.40;;;15.20;1.00;;;;;;4953661;29;20787;-76
2022/09/04 01:55:46;;;;;;;1.77;1.67;;;15.10;1.00;;;;;;4966209;28;20512;-76
2022/09/04 01:58:38;;;;;;;4.97;2.00;;;15.20;1.00;;;;;;4954806;28;20446;-83
2022/09/04 02:01:38;;;;;;;5.43;2.10;;;15.20;1.00;;;;;;4973709;28;20394;-83
2022/09/04 02:04:29;;;;;;;2.60;2.07;;;15.30;1.00;;;;;;4974691;28;20453;-83
2022/09/04 02:07:29;;;;;;;1.70;1.60;;;15.30;1.00;;;;;;5014531;28;20378;-83
2022/09/04 02:14:01;;;;;;;2.70;2.13;;;15.40;1.00;;;;;;5045401;28;20392;-84
2022/09/04 02:20:26;;;;;;;1.83;1.73;;;15.30;1.00;;;;;;5039405;28;20384;-83
2022/09/04 02:23:26;;;;;;;2.43;1.77;;;15.30;1.00;;;;;;5036124;28;20388;-83
2022/09/04 02:26:26;;;;;;;1.97;1.83;;;15.40;1.00;;;;;;5032662;28;20448;-83
2022/09/04 02:32:42;;;;;;;3.73;2.00;;;15.50;1.00;;;;;;5034018;28;20481;-82
2022/09/04 02:35:44;;;;;;;1.97;1.80;;;15.50;1.00;;;;;;5024205;28;20484;-83
2022/09/04 02:38:50;;;;;;;2.60;2.10;;;15.50;1.00;;;;;;5038337;28;20397;-83
2022/09/04 02:41:32;;;;;;;1.97;1.87;;;15.50;1.00;;;;;;5029844;28;20396;-83
2022/09/04 02:44:26;;;;;;;3.57;2.10;;;15.50;1.00;;;;;;5037565;28;20487;-83
2022/09/04 02:47:17;;;;;;;2.60;2.40;;;15.50;1.00;;;;;;5033484;28;20776;-83
2022/09/04 02:50:27;;;;;;;4.20;2.00;;;15.50;1.00;;;;;;4994934;28;20420;-82
2022/09/04 02:53:09;;;;;;;2.90;2.00;;;15.60;1.00;;;;;;5003297;28;20505;-83
2022/09/04 02:55:56;;;;;;;2.30;2.10;;;15.50;1.00;;;;;;5022351;28;21033;-83
2022/09/04 02:58:48;;;;;;;3.73;1.90;;;15.60;1.00;;;;;;4998145;28;20439;-83
2022/09/04 03:01:45;;;;;;;7.03;1.90;;;15.60;1.00;;;;;;5028857;28;20409;-83
2022/09/04 03:04:32;;;;;;;2.47;2.27;;;15.60;1.00;;;;;;5006890;28;20424;-83
2022/09/04 03:07:25;;;;;;;2.13;1.93;;;15.60;1.00;;;;;;5015365;28;20406;-83
2022/09/04 03:09:57;;;;;;;1.70;1.60;;;15.70;1.00;;;;;;5015126;28;21569;-83
2022/09/04 03:12:41;;;;;;;4.47;2.50;;;15.70;1.00;;;;;;5015309;28;20399;-83
2022/09/04 03:15:56;;;;;;;3.20;2.47;;;15.80;1.00;;;;;;5022056;28;20772;-83
2022/09/04 03:18:33;;;;;;;3.73;2.63;;;15.80;1.00;;;;;;5012073;28;20430;-83
2022/09/04 03:21:32;;;;;;;2.37;2.00;;;15.90;1.00;;;;;;5021339;28;20397;-83
2022/09/04 03:24:33;;;;;;;3.90;2.20;;;15.90;1.00;;;;;;5003118;28;20937;-83
2022/09/04 03:27:21;;;;;;;3.20;2.23;;;16.00;1.00;;;;;;5028398;28;20431;-83
2022/09/04 03:30:10;;;;;;;3.03;2.17;;;16.00;1.00;;;;;;5041385;28;20417;-77
2022/09/04 03:33:02;;;;;;;3.63;2.30;;;16.00;1.00;;;;;;5042975;28;20376;-76
2022/09/04 03:36:03;;;;;;;3.80;2.50;;;16.10;1.00;;;;;;5048441;28;20433;-77
2022/09/04 03:39:08;;;;;;;2.63;2.43;;;16.10;1.00;;;;;;5001010;28;20409;-76
2022/09/04 03:41:54;;;;;;;2.00;1.80;;;16.20;1.00;;;;;;4995219;28;20494;-76
2022/09/04 03:44:57;;;;;;;2.60;2.40;;;16.30;1.00;;;;;;4994127;28;20395;-83
2022/09/04 03:54:31;;;;;;;4.37;2.27;;;16.40;1.00;;;;;;4994505;28;20399;-83
2022/09/04 04:00:35;;;;;;;3.03;2.73;;;16.50;1.00;;;;;;5009894;28;20427;-76
2022/09/04 04:03:28;;;;;;;5.60;3.10;;;16.50;1.00;;;;;;4994126;28;20788;-77
2022/09/04 04:06:11;;;;;;;2.50;2.03;;;16.60;1.00;;;;;;5004628;28;20486;-76
2022/09/04 04:09:14;;;;;;;2.20;2.00;;;16.50;1.00;;;;;;5000188;28;20438;-76
2022/09/04 04:12:17;;;;;;;2.97;2.17;;;16.50;1.00;;;;;;4998105;28;20440;-76
2022/09/04 04:25:16;;;;;;;3.00;1.97;;;16.80;1.00;;;;;;5048353;28;20386;-83
2022/09/04 04:31:39;;;;;;;2.53;2.33;;;16.80;1.00;;;;;;5037024;28;20401;-76
2022/09/04 04:34:31;;;;;;;4.17;2.50;;;16.90;1.00;;;;;;5044811;28;20436;-76
2022/09/04 04:37:43;;;;;;;2.03;1.90;;;16.90;1.00;;;;;;5035088;28;20424;-76
2022/09/04 04:40:45;;;;;;;3.80;1.90;;;16.90;1.00;;;;;;5035341;28;20469;-76
2022/09/04 04:50:15;;;;;;;3.83;2.83;;;17.00;1.00;;;;;;5035175;28;20453;-83
2022/09/04 04:53:33;;;;;;;5.13;2.87;;;17.00;1.00;;;;;;5043305;28;20432;-83
2022/09/04 04:56:53;;;;;;;4.17;2.73;;;17.10;1.00;;;;;;5025622;28;20459;-83
2022/09/04 04:59:54;;;;;;;4.70;3.40;;;17.10;1.00;;;;;;5001513;28;20577;-76
2022/09/04 05:03:03;;;;;;;3.43;3.13;;;17.20;1.00;;;;;;4974407;28;20417;-76
2022/09/04 05:05:52;;;;;;;3.80;2.80;;;17.20;1.00;;;;;;4993964;28;20454;-76
2022/09/04 05:08:46;;;;;;;3.20;2.90;;;17.30;1.00;;;;;;5006366;28;20459;-76
2022/09/04 05:11:40;;;;;;;5.77;3.27;;;17.30;1.00;;;;;;4996188;28;20456;-76
2022/09/04 05:17:54;;;;;;;9.10;4.77;;;17.40;1.00;;;;;;4993289;28;20429;-83
2022/09/04 05:27:46;;;;;;;9.43;5.90;;;17.60;1.00;;;;;;5003794;28;20421;-80
2022/09/04 05:31:04;;;;;;;12.00;6.30;;;17.60;1.00;;;;;;4936475;29;20423;-79
2022/09/04 05:40:24;;;;;;;15.63;6.60;;;17.70;1.00;;;;;;4973250;28;20900;-80
2022/09/04 05:43:29;;;;;;;14.10;7.80;;;17.80;1.00;;;;;;4992290;28;20427;-80
2022/09/04 05:46:16;;;;;;;17.77;7.90;;;17.80;1.00;;;;;;4992812;28;20916;-77
2022/09/04 05:52:11;;;;;;;17.20;7.87;;;17.90;1.00;;;;;;5005504;28;20394;-79
2022/09/04 05:58:21;;;;;;;18.27;8.83;;;18.00;1.00;;;;;;4997895;28;20390;-79
2022/09/04 06:01:34;;;;;;;19.47;9.10;;;18.10;1.00;;;;;;5008490;28;20808;-79
2022/09/04 06:04:39;;;;;;;19.60;7.90;;;18.10;1.00;;;;;;5042763;28;20395;-79
2022/09/04 06:07:26;;;;;;;21.17;9.40;;;18.10;1.00;;;;;;5033876;28;20391;-80
2022/09/04 06:14:02;;;;;;;27.60;10.17;;;18.30;1.00;;;;;;5033639;28;20398;-79
2022/09/04 06:16:46;;;;;;;32.17;10.57;;;18.40;1.00;;;;;;5060906;28;20464;-79
2022/09/04 06:19:45;;;;;;;38.77;11.23;;;18.50;1.00;;;;;;5029662;28;21052;-79
2022/09/04 06:29:32;;;;;;;39.80;12.20;;;18.70;1.00;;;;;;5037601;28;20818;-78
2022/09/04 06:32:39;;;;;;;49.40;13.47;;;18.80;1.00;;;;;;5040966;28;20404;-79
2022/09/04 06:35:42;;;;;;;39.43;11.40;;;18.90;1.00;;;;;;5039790;28;20847;-79
2022/09/04 06:39:03;;;;;;;48.23;12.90;;;19.00;1.00;;;;;;5032890;28;20937;-79
2022/09/04 06:42:02;;;;;;;49.00;14.07;;;19.00;1.00;;;;;;5036760;28;20426;-79
2022/09/04 06:45:10;;;;;;;54.00;14.13;;;19.20;1.00;;;;;;5030783;28;20494;-79
2022/09/04 06:48:23;;;;;;;42.93;13.17;;;19.30;1.00;;;;;;5044825;28;20478;-79
2022/09/04 06:51:06;;;;;;;56.37;14.00;;;19.30;1.00;;;;;;5008046;28;20448;-79
2022/09/04 06:53:45;;;;;;;42.57;12.97;;;19.30;1.00;;;;;;4995728;28;20434;-80
2022/09/04 06:56:42;;;;;;;47.93;14.47;;;19.40;1.00;;;;;;4994967;28;20559;-78
2022/09/04 07:03:03;;;;;;;38.23;11.73;;;19.60;1.00;;;;;;4995170;28;20471;-79
2022/09/04 07:06:03;;;;;;;34.50;11.97;;;19.80;1.00;;;;;;5003529;28;20390;-79
2022/09/04 07:08:31;;;;;;;30.37;11.13;;;19.80;1.00;;;;;;4998104;28;20455;-79
2022/09/04 07:11:16;;;;;;;25.63;9.70;;;19.90;1.00;;;;;;4975985;28;20456;-73
2022/09/04 07:14:10;;;;;;;30.90;10.87;;;19.90;1.00;;;;;;4993471;28;20414;-73
2022/09/04 07:17:07;;;;;;;27.03;11.00;;;20.00;1.00;;;;;;4984743;28;20913;-79
2022/09/04 07:20:03;;;;;;;26.00;9.30;;;19.80;1.00;;;;;;4995263;28;20887;-80
2022/09/04 07:26:09;;;;;;;25.93;9.30;;;19.90;1.00;;;;;;4994944;28;20463;-78
2022/09/04 07:32:02;;;;;;;18.40;7.53;;;20.30;1.00;;;;;;5041056;28;20481;-73
2022/09/04 07:34:54;;;;;;;16.17;7.27;;;20.30;1.00;;;;;;5036011;28;20428;-73
2022/09/04 07:37:30;;;;;;;12.73;7.00;;;20.50;1.00;;;;;;5039351;28;20444;-73
2022/09/04 07:40:02;;;;;;;11.20;6.10;;;20.70;1.00;;;;;;5043771;28;20427;-73
2022/09/04 07:42:56;;;;;;;13.60;7.40;;;20.80;1.00;;;;;;5050937;28;20427;-74
2022/09/04 07:46:04;;;;;;;13.80;7.23;;;21.00;1.00;;;;;;5050096;28;20454;-84
2022/09/04 07:49:08;;;;;;;14.47;7.50;;;21.00;1.00;;;;;;5054556;28;20427;-84
2022/09/04 07:52:03;;;;;;;14.27;8.30;;;20.90;1.00;;;;;;5042993;28;20476;-82
2022/09/04 07:55:03;;;;;;;13.07;6.97;;;20.90;1.00;;;;;;5028333;28;20549;-83
2022/09/04 07:58:03;;;;;;;11.73;6.30;;;21.00;1.00;;;;;;5030191;28;20411;-82
2022/09/04 08:00:46;;;;;;;10.70;6.20;;;20.90;1.00;;;;;;5036870;28;20790;-75
2022/09/04 08:03:33;;;;;;;11.87;5.93;;;20.90;1.00;;;;;;5034483;28;20455;-74
2022/09/04 08:06:21;;;;;;;15.80;7.40;;;21.00;1.00;;;;;;5036134;28;20432;-74
2022/09/04 08:09:22;;;;;;;17.37;6.70;;;21.00;1.00;;;;;;5033379;28;20444;-75
2022/09/04 08:12:24;;;;;;;14.33;7.47;;;21.10;1.00;;;;;;5035200;28;20448;-74
2022/09/04 08:15:20;;;;;;;13.23;7.60;;;21.20;1.00;;;;;;5036979;28;20416;-75
2022/09/04 08:25:07;;;;;;;14.20;7.37;;;21.50;1.00;;;;;;5036764;28;20407;-81
2022/09/04 08:28:03;;;;;;;14.17;7.50;;;21.60;1.00;;;;;;5045780;28;20473;-81
2022/09/04 08:30:48;;;;;;;14.73;8.03;;;21.80;1.00;;;;;;5041517;28;20425;-82
2022/09/04 08:33:51;;;;;;;12.77;7.80;;;21.80;1.00;;;;;;5016767;28;20826;-82
2022/09/04 08:36:36;;;;;;;20.07;8.10;;;21.80;1.00;;;;;;5016587;28;20460;-82
2022/09/04 08:39:39;;;;;;;14.83;8.50;;;21.80;1.00;;;;;;5038611;28;20436;-81
2022/09/04 08:42:33;;;;;;;14.73;9.10;;;21.70;1.00;;;;;;5026527;28;20464;-81
2022/09/04 08:45:44;;;;;;;13.80;7.87;;;21.80;1.00;;;;;;5046195;28;20440;-82
2022/09/04 08:48:33;;;;;;;14.37;8.67;;;21.90;1.00;;;;;;5035163;28;20428;-81
2022/09/04 08:51:03;;;;;;;13.60;8.10;;;22.10;1.00;;;;;;5030921;28;20419;-81
2022/09/04 08:54:03;;;;;;;15.30;9.27;;;22.30;1.00;;;;;;5034594;28;20431;-80
2022/09/04 08:57:03;;;;;;;15.00;8.50;;;22.50;1.00;;;;;;5034380;28;20488;-81
2022/09/04 09:00:05;;;;;;;12.27;8.47;;;22.70;1.00;;;;;;5033782;28;20525;-81
2022/09/04 09:02:52;;;;;;;13.07;7.90;;;22.70;1.00;;;;;;5035695;28;20409;-75
2022/09/04 09:05:38;;;;;;;14.03;9.23;;;23.00;1.00;;;;;;5038100;28;20440;-74
2022/09/04 09:08:44;;;;;;;14.60;9.40;;;23.00;1.00;;;;;;5034075;28;20489;-78
2022/09/04 09:11:42;;;;;;;15.17;8.73;;;23.10;1.00;;;;;;5030478;28;20473;-73
2022/09/04 09:14:52;;;;;;;12.77;8.23;;;23.30;1.00;;;;;;5040410;28;20795;-77
2022/09/04 09:17:52;;;;;;;17.93;10.00;;;23.60;1.00;;;;;;5033993;28;20455;-76
2022/09/04 09:20:33;;;;;;;17.97;9.73;;;23.70;1.00;;;;;;5028242;28;20447;-76
2022/09/04 09:23:36;;;;;;;16.00;9.10;;;23.70;1.00;;;;;;5034098;28;20489;-76
2022/09/04 09:26:37;;;;;;;16.70;10.40;;;23.60;1.00;;;;;;5025593;28;20557;-76
2022/09/04 09:29:30;;;;;;;15.97;9.17;;;23.60;1.00;;;;;;5036803;28;20923;-77
2022/09/04 09:32:11;;;;;;;15.00;8.93;;;23.60;1.00;;;;;;5036631;28;20424;-78
2022/09/04 09:35:21;;;;;;;21.17;11.67;;;23.50;1.00;;;;;;5035724;28;20940;-76
2022/09/04 09:38:28;;;;;;;19.90;10.90;;;23.40;1.00;;;;;;5033886;28;20789;-76
2022/09/04 09:41:09;;;;;;;14.57;9.90;;;23.50;1.00;;;;;;5031083;28;20431;-77
2022/09/04 09:44:08;;;;;;;14.07;9.13;;;23.60;1.00;;;;;;5040587;28;20435;-72
2022/09/04 09:47:09;;;;;;;14.20;8.83;;;23.80;1.00;;;;;;5037512;28;20431;-83
2022/09/04 09:50:03;;;;;;;12.73;8.83;;;23.70;1.00;;;;;;5046708;28;20420;-84
2022/09/04 09:52:51;;;;;;;16.40;10.70;;;23.80;1.00;;;;;;5042489;28;20450;-84
2022/09/04 09:55:47;;;;;;;15.30;9.60;;;24.10;1.00;;;;;;5034896;28;20450;-84
2022/09/04 09:58:54;;;;;;;18.63;10.90;;;24.10;1.00;;;;;;5036458;28;20457;-83
2022/09/04 10:01:47;;;;;;;18.90;11.90;;;23.70;1.00;;;;;;5030036;28;20512;-83
2022/09/04 10:04:44;;;;;;;15.60;10.70;;;23.60;1.00;;;;;;5040524;28;20405;-77
2022/09/04 10:07:47;;;;;;;15.63;10.50;;;23.00;1.00;;;;;;5042264;28;20497;-77
2022/09/04 10:11:03;;;;;;;16.83;10.53;;;22.70;1.00;;;;;;5032726;28;20503;-78
2022/09/04 10:14:16;;;;;;;14.40;9.80;;;22.80;1.00;;;;;;5037487;28;20437;-78
2022/09/04 10:17:00;;;;;;;15.13;10.90;;;22.80;1.00;;;;;;5033099;28;20467;-82
2022/09/04 10:19:45;;;;;;;15.80;10.67;;;22.60;1.00;;;;;;5025713;28;20422;-75
2022/09/04 10:22:48;;;;;;;14.57;9.90;;;22.60;1.00;;;;;;5038899;28;20418;-81
2022/09/04 10:32:19;;;;;;;11.13;8.53;;;22.70;1.00;;;;;;5014190;28;20891;-81
2022/09/04 10:35:23;;;;;;;10.87;8.33;;;22.70;1.00;;;;;;5037405;28;20426;-83
2022/09/04 10:38:27;;;;;;;12.23;8.07;;;22.80;1.00;;;;;;5053506;28;20405;-85
2022/09/04 10:47:50;;;;;;;11.90;7.70;;;22.90;1.00;;;;;;5013867;28;20406;-85
2022/09/04 10:50:34;;;;;;;10.90;8.03;;;23.00;1.00;;;;;;5043837;28;20407;-83
2022/09/04 10:53:51;;;;;;;9.47;7.43;;;23.10;1.00;;;;;;5031648;28;20858;-84
2022/09/04 10:56:52;;;;;;;7.97;7.13;;;23.20;1.00;;;;;;5045789;28;20454;-84
2022/09/04 10:59:40;;;;;;;10.33;8.17;;;23.20;1.00;;;;;;5042912;28;20885;-82
2022/09/04 11:02:48;;;;;;;13.80;8.00;;;23.40;1.00;;;;;;5032946;28;20424;-82
2022/09/04 11:05:20;;;;;;;11.43;8.07;;;23.50;1.00;;;;;;5027957;28;20433;-83
2022/09/04 11:07:58;;;;;;;8.80;7.60;;;23.70;1.00;;;;;;5032864;28;20411;-84
2022/09/04 11:10:27;;;;;;;8.43;7.23;;;23.80;1.00;;;;;;5042044;28;20828;-84
2022/09/04 11:13:09;;;;;;;9.20;7.67;;;23.80;1.00;;;;;;5029556;28;20427;-82
2022/09/04 11:16:15;;;;;;;6.40;5.80;;;24.10;1.00;;;;;;5029579;28;20467;-83
2022/09/04 11:19:09;;;;;;;6.10;5.50;;;24.20;1.00;;;;;;5025800;28;20487;-75
2022/09/04 11:21:53;;;;;;;5.83;4.67;;;24.30;1.00;;;;;;5029825;28;20436;-78
2022/09/04 11:24:34;;;;;;;6.57;5.50;;;24.50;1.00;;;;;;5035382;28;20414;-82
2022/09/04 11:30:52;;;;;;;6.27;5.70;;;24.70;1.00;;;;;;5038799;28;20420;-80
2022/09/04 11:34:00;;;;;;;8.33;5.67;;;25.00;1.00;;;;;;5035967;28;20454;-76
2022/09/04 11:40:24;;;;;;;7.13;5.90;;;24.80;1.00;;;;;;5025498;28;20432;-86
2022/09/04 11:46:46;;;;;;;6.60;4.13;;;24.90;1.00;;;;;;5039441;28;20470;-74
2022/09/04 11:49:48;;;;;;;3.93;3.63;;;25.10;1.00;;;;;;5040904;28;20468;-72
2022/09/04 11:52:39;;;;;;;4.23;3.90;;;25.30;1.00;;;;;;5036155;28;20436;-75
2022/09/04 11:55:12;;;;;;;3.70;3.30;;;25.60;1.00;;;;;;5045249;28;20537;-75
2022/09/04 11:58:16;;;;;;;4.80;3.80;;;25.80;1.00;;;;;;5032571;28;20447;-76
2022/09/04 12:01:19;;;;;;;6.93;3.50;;;25.90;1.00;;;;;;5038776;28;20927;-93
2022/09/04 12:07:14;;;;;;;4.10;3.00;;;25.90;1.00;;;;;;5036590;28;20411;-91
2022/09/04 12:17:17;;;;;;;3.43;2.50;;;26.10;1.00;;;;;;5036236;28;20805;-91
2022/09/04 12:27:03;;;;;;;2.63;2.43;;;26.10;1.00;;;;;;5037533;28;20377;-88
2022/09/04 12:33:21;;;;;;;2.27;2.10;;;26.50;1.00;;;;;;5017042;28;20382;-90
2022/09/04 12:39:17;;;;;;;2.60;2.40;;;26.90;1.00;;;;;;5015984;28;20504;-87
2022/09/04 12:48:41;;;;;;;1.93;1.83;;;27.20;1.00;;;;;;5035517;28;20400;-89
2022/09/04 12:51:51;;;;;;;1.80;1.70;;;27.30;1.00;;;;;;5035548;28;20418;-81
2022/09/04 13:01:20;;;;;;;7.97;2.00;;;27.30;1.00;;;;;;5034431;28;20379;-80
2022/09/04 13:04:33;;;;;;;3.43;1.90;;;27.50;1.00;;;;;;5038140;28;20439;-80
2022/09/04 13:07:26;;;;;;;15.83;2.70;;;27.80;1.00;;;;;;5051551;28;20740;-89
2022/09/04 13:10:33;;;;;;;2.20;2.00;;;27.70;1.00;;;;;;5040724;28;20446;-87
2022/09/04 13:13:52;;;;;;;1.60;1.50;;;27.70;1.00;;;;;;5034896;28;20799;-84
2022/09/04 13:16:24;;;;;;;1.50;1.40;;;27.70;1.00;;;;;;5034069;28;20450;-86
2022/09/04 13:19:06;;;;;;;1.90;1.40;;;28.00;1.00;;;;;;5034830;28;20406;-86
2022/09/04 13:28:34;;;;;;;1.07;1.07;;;28.00;1.00;;;;;;5033985;28;20764;-83
2022/09/04 13:41:33;;;;;;;1.37;1.27;;;28.60;1.00;;;;;;5034999;28;20971;-72
2022/09/04 13:44:14;;;;;;;1.30;1.20;;;28.60;1.00;;;;;;5032950;28;20919;-72
2022/09/04 13:46:47;;;;;;;5.70;1.80;;;28.60;1.00;;;;;;5033735;28;20416;-73
2022/09/04 13:49:18;;;;;;;3.47;1.77;;;28.70;1.00;;;;;;5046914;28;20460;-72
2022/09/04 13:51:51;;;;;;;1.23;1.13;;;28.80;1.00;;;;;;5034129;28;20502;-70
2022/09/04 13:54:23;;;;;;;1.10;1.00;;;28.90;1.00;;;;;;5033581;28;20484;-69
2022/09/04 13:57:01;;;;;;;1.33;1.23;;;28.90;1.00;;;;;;5041846;28;20552;-70
2022/09/04 13:59:28;;;;;;;1.00;1.00;;;28.70;1.00;;;;;;5044029;28;20421;-70
2022/09/04 14:01:58;;;;;;;1.70;1.00;;;28.80;1.00;;;;;;5038836;28;20424;-74
2022/09/04 14:04:33;;;;;;;1.20;1.20;;;28.80;1.00;;;;;;5032197;28;20801;-72
2022/09/04 14:07:05;;;;;;;1.27;1.17;;;28.80;1.00;;;;;;5042041;28;20446;-76
2022/09/04 14:09:37;;;;;;;1.33;1.20;;;28.80;1.00;;;;;;5026816;28;20490;-75
2022/09/04 14:12:19;;;;;;;1.27;1.27;;;28.90;1.00;;;;;;5033450;28;20839;-75
2022/09/04 14:15:16;;;;;;;1.53;1.33;;;28.80;1.00;;;;;;5031614;28;20437;-74
2022/09/04 14:17:58;;;;;;;1.23;1.00;;;28.80;1.00;;;;;;5032940;28;20414;-75
2022/09/04 14:20:39;;;;;;;1.53;0.90;;;28.80;1.00;;;;;;5033378;28;20414;-75
2022/09/04 14:23:10;;;;;;;1.13;0.80;;;28.90;1.00;;;;;;5046768;28;20448;-76
2022/09/04 14:26:15;;;;;;;1.47;1.00;;;28.90;1.00;;;;;;5045124;28;20428;-76
2022/09/04 14:28:53;;;;;;;1.23;0.80;;;29.00;1.00;;;;;;5021537;28;20458;-72
2022/09/04 14:31:30;;;;;;;2.47;1.10;;;29.00;1.00;;;;;;5021866;28;20433;-73
2022/09/04 14:34:12;;;;;;;0.97;0.80;;;29.00;1.00;;;;;;5016082;28;20418;-72
2022/09/04 14:36:51;;;;;;;0.80;0.80;;;29.10;1.00;;;;;;5011889;28;20467;-73
2022/09/04 14:46:18;;;;;;;2.87;0.83;;;28.80;1.00;;;;;;5012655;28;20396;-85
2022/09/04 14:52:40;;;;;;;2.20;0.80;;;28.80;1.00;;;;;;5012579;28;20430;-80
2022/09/04 14:55:28;;;;;;;6.30;0.80;;;28.80;1.00;;;;;;5014084;28;20399;-79
2022/09/04 14:58:19;;;;;;;2.50;0.70;;;29.10;1.00;;;;;;5034320;28;20526;-79
2022/09/04 15:01:19;;;;;;;1.10;1.00;;;29.70;1.00;;;;;;5027973;28;20464;-80
2022/09/04 15:04:09;;;;;;;1.53;0.77;;;30.80;1.00;;;;;;4993765;28;20507;-80
2022/09/04 15:06:56;;;;;;;2.67;0.70;;;31.50;1.00;;;;;;4982341;28;20410;-81
2022/09/04 15:10:17;;;;;;;0.70;0.70;;;33.30;1.00;;;;;;5002942;28;20459;-90
2022/09/04 15:12:54;;;;;;;0.80;0.80;;;33.90;1.00;;;;;;4931686;29;20434;-91
2022/09/04 15:15:58;;;;;;;2.00;0.73;;;35.20;1.00;;;;;;4931721;29;20473;-91
2022/09/04 15:22:25;;;;;;;0.83;0.80;;;37.30;1.00;;;;;;4927416;29;20524;-82
2022/09/04 15:31:37;;;;;;;0.77;0.77;;;39.20;1.00;;;;;;4944568;29;20458;-80
2022/09/04 15:34:23;;;;;;;1.27;0.97;;;38.90;1.00;;;;;;4952655;29;20537;-80
2022/09/04 15:36:49;;;;;;;1.10;1.00;;;39.80;1.00;;;;;;4942761;29;20510;-73
2022/09/04 15:39:35;;;;;;;4.20;1.00;;;40.40;1.00;;;;;;4939747;29;20425;-73
2022/09/04 15:42:01;;;;;;;0.80;0.70;;;40.60;1.00;;;;;;4982627;28;20425;-73
2022/09/04 15:44:40;;;;;;;0.70;0.60;;;41.20;1.00;;;;;;4981267;28;20418;-73
2022/09/04 15:47:22;;;;;;;0.80;0.73;;;41.10;1.00;;;;;;5014245;28;20319;-73
2022/09/04 15:50:00;;;;;;;0.70;0.70;;;40.60;1.00;;;;;;5045720;28;20772;-73
2022/09/04 15:52:45;;;;;;;0.70;0.70;;;39.80;1.00;;;;;;5052025;28;20425;-77
2022/09/04 15:58:41;;;;;;;2.33;0.87;;;40.50;1.00;;;;;;5044468;28;20472;-77
2022/09/04 16:04:41;;;;;;;0.80;0.80;;;40.70;1.00;;;;;;5049656;28;20925;-78
2022/09/04 16:07:22;;;;;;;0.70;0.70;;;41.50;1.00;;;;;;5038956;28;20410;-78
2022/09/04 16:10:14;;;;;;;0.83;0.83;;;41.80;1.00;;;;;;5054551;28;20426;-73
2022/09/04 16:12:56;;;;;;;0.87;0.87;;;42.00;1.00;;;;;;5045373;28;20435;-73
2022/09/04 16:15:31;;;;;;;0.80;0.80;;;42.00;1.00;;;;;;5049145;28;20451;-73
2022/09/04 16:18:01;;;;;;;0.70;0.70;;;41.80;1.00;;;;;;5030339;28;20405;-73
2022/09/04 16:20:56;;;;;;;1.17;0.70;;;40.60;1.00;;;;;;5051390;28;20860;-73
2022/09/04 16:23:33;;;;;;;2.00;1.10;;;40.00;1.00;;;;;;5035494;28;20433;-78
2022/09/04 16:26:16;;;;;;;0.63;0.63;;;39.90;1.00;;;;;;5035344;28;20815;-77
2022/09/04 16:29:02;;;;;;;3.07;0.80;;;39.80;1.00;;;;;;5037959;28;20423;-78
2022/09/04 16:31:39;;;;;;;5.57;1.07;;;39.80;1.00;;;;;;5043808;28;20415;-77
2022/09/04 16:34:51;;;;;;;1.10;0.97;;;39.10;1.00;;;;;;5035268;28;20415;-77
2022/09/04 16:37:22;;;;;;;2.83;1.07;;;38.30;1.00;;;;;;5036317;28;20476;-77
2022/09/04 16:40:13;;;;;;;3.20;0.90;;;37.80;1.00;;;;;;5043541;28;20426;-73
2022/09/04 16:43:15;;;;;;;0.80;0.80;;;37.60;1.00;;;;;;5034832;28;20928;-73
2022/09/04 16:46:06;;;;;;;1.80;0.90;;;36.40;1.00;;;;;;5009066;28;20431;-73
2022/09/04 16:48:51;;;;;;;1.30;1.20;;;35.50;1.00;;;;;;5014311;28;20424;-72
2022/09/04 16:51:42;;;;;;;2.33;1.10;;;34.60;1.00;;;;;;5012868;28;20412;-72
2022/09/04 16:54:19;;;;;;;1.50;1.00;;;33.80;1.00;;;;;;5021076;28;20428;-72
2022/09/04 16:56:54;;;;;;;1.30;1.20;;;33.20;1.00;;;;;;5016341;28;20530;-72
2022/09/04 16:59:39;;;;;;;1.10;0.83;;;32.40;1.00;;;;;;5019069;28;20529;-72
2022/09/04 17:02:20;;;;;;;1.37;1.20;;;31.70;1.00;;;;;;5013016;28;20959;-72
2022/09/04 17:05:07;;;;;;;2.07;1.63;;;31.20;1.00;;;;;;5004389;28;20574;-73
2022/09/04 17:07:38;;;;;;;1.40;1.20;;;30.70;1.00;;;;;;5022076;28;20416;-72
2022/09/04 17:10:20;;;;;;;1.20;1.10;;;30.20;1.00;;;;;;5011518;28;20943;-72
2022/09/04 17:12:57;;;;;;;2.20;1.17;;;29.80;1.00;;;;;;5015867;28;20436;-72
2022/09/04 17:15:44;;;;;;;2.30;1.40;;;29.20;1.00;;;;;;5018994;28;20548;-72
2022/09/04 17:18:11;;;;;;;2.00;1.80;;;28.90;1.00;;;;;;5013428;28;20816;-72
2022/09/04 17:20:50;;;;;;;2.17;1.37;;;28.50;1.00;;;;;;5012488;28;20472;-73
2022/09/04 17:23:26;;;;;;;2.73;1.63;;;28.20;1.00;;;;;;5031535;28;20441;-73
2022/09/04 17:26:07;;;;;;;1.37;1.27;;;28.00;1.00;;;;;;5043649;28;20896;-73
2022/09/04 17:28:46;;;;;;;2.00;1.43;;;27.80;1.00;;;;;;5029587;28;20441;-72
2022/09/04 17:31:32;;;;;;;7.27;1.50;;;27.60;1.00;;;;;;5036390;28;20420;-73
2022/09/04 17:34:45;;;;;;;2.33;1.40;;;27.30;1.00;;;;;;5042366;28;20520;-72
2022/09/04 17:37:34;;;;;;;1.40;1.30;;;27.10;1.00;;;;;;5027098;28;20959;-73
2022/09/04 17:40:17;;;;;;;6.10;1.20;;;26.80;1.00;;;;;;5033518;28;20400;-77
2022/09/04 17:42:54;;;;;;;1.30;1.30;;;26.60;1.00;;;;;;5033903;28;20418;-77
2022/09/04 17:45:58;;;;;;;4.33;1.40;;;26.30;1.00;;;;;;5031093;28;20430;-80
2022/09/04 17:49:16;;;;;;;1.37;1.27;;;26.10;1.00;;;;;;5034367;28;20447;-79
2022/09/04 17:52:01;;;;;;;1.70;1.37;;;25.80;1.00;;;;;;5029200;28;20777;-79
2022/09/04 17:55:02;;;;;;;2.70;1.40;;;25.50;1.00;;;;;;5033823;28;20412;-74
2022/09/04 17:58:06;;;;;;;2.20;1.93;;;25.20;1.00;;;;;;5033002;28;20924;-74
2022/09/04 18:00:48;;;;;;;1.70;1.27;;;25.00;1.00;;;;;;5039256;28;20529;-74
2022/09/04 18:03:43;;;;;;;3.73;1.80;;;24.70;1.00;;;;;;5029712;28;20485;-73
2022/09/04 18:06:15;;;;;;;2.40;2.00;;;24.50;1.00;;;;;;4932645;29;20667;-75
2022/09/04 18:08:53;;;;;;;9.27;2.07;;;24.30;1.00;;;;;;4933456;29;20458;-74
2022/09/04 18:14:44;;;;;;;2.27;2.07;;;23.90;1.00;;;;;;4948828;29;20407;-88
2022/09/04 18:17:34;;;;;;;2.80;1.70;;;23.60;1.00;;;;;;4944054;29;20476;-78
2022/09/04 18:20:26;;;;;;;7.40;2.00;;;23.40;1.00;;;;;;4934438;29;20501;-77
2022/09/04 18:23:19;;;;;;;8.27;1.97;;;23.20;1.00;;;;;;4933353;29;20431;-81
2022/09/04 18:29:36;;;;;;;2.33;1.70;;;22.80;1.00;;;;;;4934792;29;20419;-80
2022/09/04 18:35:54;;;;;;;5.27;1.60;;;22.40;1.00;;;;;;4959347;28;20480;-81
2022/09/04 18:38:57;;;;;;;1.83;1.73;;;22.20;1.00;;;;;;4952892;29;20438;-82